Terminal Aerodrome Forecast
Issued by NWS

Home | Current Version | Previous Version | Text Only | Print | Product List | Glossary On
Versions: 1 2 3 4 5 6 7 8 9 10 11 12 13 14 15 16 17 18 19 20 21 22 23 24 25 26 27 28 29
000
FTUS43 KMKX 242326
TAFUES
TAF
KUES 242326Z 2500/2524 01010KT P6SM SCT024 BKN060
      TEMPO 2500/2501 BKN024
     FM250400 02007KT P6SM SCT008 BKN025
     FM250600 01007KT 5SM BR BKN008
     FM251100 36007KT 3SM BR BKN003
     FM251400 36008KT P6SM BKN003
     FM251700 35008KT P6SM BKN015
     FM252100 36008KT P6SM BKN040=

USA.gov is the U.S. government's official web portal to all federal, state and local government web resources and services.